createdAt,value
2023-01-19T00:00:48.872Z,2.55
2023-01-19T00:03:28.113Z,2.50
2023-01-19T00:05:56.516Z,2.45
2023-01-19T00:08:24.751Z,2.42
2023-01-19T00:10:52.914Z,2.42
2023-01-19T00:13:21.354Z,2.44
2023-01-19T00:15:49.690Z,2.46
2023-01-19T00:18:18.043Z,2.48
2023-01-19T00:20:46.851Z,2.50
2023-01-19T00:23:15.841Z,2.49
2023-01-19T00:25:44.422Z,2.49
2023-01-19T00:28:14.764Z,2.49
2023-01-19T00:30:43.541Z,2.52
2023-01-19T00:33:13.831Z,2.56
2023-01-19T00:35:42.195Z,2.60
2023-01-19T00:38:11.191Z,2.61
2023-01-19T00:40:39.561Z,2.59
2023-01-19T00:43:07.762Z,2.54
2023-01-19T00:45:35.981Z,2.54
2023-01-19T00:48:04.601Z,2.57
2023-01-19T00:50:33.387Z,2.61
2023-01-19T00:53:02.797Z,2.63
2023-01-19T00:55:32.528Z,2.65
2023-01-19T00:58:02.063Z,2.67
2023-01-19T01:00:30.538Z,2.69
2023-01-19T01:03:00.503Z,2.70
2023-01-19T01:05:29.080Z,2.69
2023-01-19T01:07:57.344Z,2.67
2023-01-19T01:10:28.604Z,2.63
2023-01-19T01:12:58.702Z,2.56
2023-01-19T01:15:29.217Z,2.52
2023-01-19T01:17:57.377Z,2.51
2023-01-19T01:20:29.431Z,2.53
2023-01-19T01:22:57.837Z,2.54
2023-01-19T01:25:27.709Z,2.58
2023-01-19T01:27:56.070Z,2.61
2023-01-19T01:30:24.280Z,2.63
2023-01-19T01:32:52.456Z,2.65
2023-01-19T01:35:20.684Z,2.66
2023-01-19T01:37:48.872Z,2.66
2023-01-19T01:40:18.272Z,2.67
2023-01-19T01:42:46.598Z,2.66
2023-01-19T01:45:32.763Z,2.65
2023-01-19T01:48:05.692Z,2.64
2023-01-19T01:50:38.385Z,2.65
2023-01-19T01:53:11.834Z,2.66
2023-01-19T01:55:48.807Z,2.66
2023-01-19T01:58:20.730Z,2.67
2023-01-19T02:01:08.929Z,2.68
2023-01-19T02:03:38.614Z,2.66
2023-01-19T02:06:09.455Z,2.64
2023-01-19T02:09:03.121Z,2.63
2023-01-19T02:11:51.688Z,2.62
2023-01-19T02:14:19.902Z,2.63
2023-01-19T02:16:48.475Z,2.65
2023-01-19T02:19:31.286Z,2.67
2023-01-19T02:22:06.163Z,2.68
2023-01-19T02:24:35.327Z,2.66
2023-01-19T02:27:04.312Z,2.63
2023-01-19T02:29:33.703Z,2.62
2023-01-19T02:32:02.539Z,2.62
2023-01-19T02:34:31.550Z,2.62
2023-01-19T02:37:05.935Z,2.63
2023-01-19T02:39:36.882Z,2.63
2023-01-19T02:42:09.406Z,2.62
2023-01-19T02:44:39.495Z,2.62
2023-01-19T02:47:07.834Z,2.63
2023-01-19T02:49:36.050Z,2.63
2023-01-19T02:52:05.485Z,2.64
2023-01-19T02:54:44.532Z,2.64
2023-01-19T02:57:47.170Z,2.65
2023-01-19T03:00:36.750Z,2.64
2023-01-19T03:03:17.173Z,2.61
2023-01-19T03:05:56.086Z,2.60
2023-01-19T03:08:37.266Z,2.61
2023-01-19T03:11:07.692Z,2.60
2023-01-19T03:13:44.847Z,2.61
2023-01-19T03:16:21.878Z,2.62
2023-01-19T03:18:54.992Z,2.61
2023-01-19T03:21:27.126Z,2.60
2023-01-19T03:24:01.962Z,2.56
2023-01-19T03:26:39.471Z,2.53
2023-01-19T03:29:10.919Z,2.51
2023-01-19T03:31:41.511Z,2.52
2023-01-19T03:34:12.972Z,2.52
2023-01-19T03:36:45.130Z,2.54
2023-01-19T03:39:17.652Z,2.52
2023-01-19T03:41:49.613Z,2.45
2023-01-19T03:44:18.141Z,2.40
2023-01-19T03:46:47.298Z,2.39
2023-01-19T03:49:15.720Z,2.42
2023-01-19T03:51:44.010Z,2.38
2023-01-19T03:54:12.511Z,2.34
2023-01-19T03:56:43.014Z,2.33
2023-01-19T03:59:11.159Z,2.34
2023-01-19T04:01:39.397Z,2.37
2023-01-19T04:04:07.632Z,2.40
2023-01-19T04:06:35.881Z,2.43
2023-01-19T04:09:04.093Z,2.44
2023-01-19T04:11:32.247Z,2.38
2023-01-19T04:14:00.986Z,2.32
2023-01-19T04:16:29.149Z,2.25
2023-01-19T04:18:57.370Z,2.20
2023-01-19T04:21:25.620Z,2.18
2023-01-19T04:23:53.872Z,2.16
2023-01-19T04:26:22.065Z,2.15
2023-01-19T04:28:50.220Z,2.16
2023-01-19T04:31:18.860Z,2.16
2023-01-19T04:33:47.055Z,2.21
2023-01-19T04:36:15.491Z,2.25
2023-01-19T04:38:45.865Z,2.29
2023-01-19T04:41:14.083Z,2.33
2023-01-19T04:43:42.299Z,2.37
2023-01-19T04:46:10.441Z,2.39
2023-01-19T04:48:40.118Z,2.41
2023-01-19T04:51:09.506Z,2.41
2023-01-19T04:53:37.766Z,2.44
2023-01-19T04:56:06.838Z,2.45
2023-01-19T04:58:35.314Z,2.46
2023-01-19T05:01:08.066Z,2.46
2023-01-19T05:03:36.289Z,2.49
2023-01-19T05:06:05.178Z,2.52
2023-01-19T05:08:33.362Z,2.54
2023-01-19T05:11:01.572Z,2.55
2023-01-19T05:13:29.775Z,2.56
2023-01-19T05:15:57.976Z,2.57
2023-01-19T05:18:26.156Z,2.55
2023-01-19T05:20:54.358Z,2.52
2023-01-19T05:23:22.530Z,2.48
2023-01-19T05:25:50.733Z,2.46
2023-01-19T05:28:20.467Z,2.46
2023-01-19T05:30:49.781Z,2.49
2023-01-19T05:33:17.929Z,2.50
2023-01-19T05:35:46.093Z,2.50
2023-01-19T05:38:15.638Z,2.48
2023-01-19T05:40:45.258Z,2.46
2023-01-19T05:43:13.759Z,2.45
2023-01-19T05:45:42.519Z,2.42
2023-01-19T05:48:10.662Z,2.35
2023-01-19T05:50:38.901Z,2.27
2023-01-19T05:53:07.039Z,2.20
2023-01-19T05:55:35.361Z,2.20
2023-01-19T05:58:03.574Z,2.18
2023-01-19T06:00:31.745Z,2.15
2023-01-19T06:03:01.712Z,2.14
2023-01-19T06:05:30.574Z,2.12
2023-01-19T06:07:59.032Z,2.13
2023-01-19T06:10:27.426Z,2.14
2023-01-19T06:12:55.593Z,2.14
2023-01-19T06:15:23.825Z,2.16
2023-01-19T06:17:52.051Z,2.18
2023-01-19T06:20:20.363Z,2.19
2023-01-19T06:22:48.590Z,2.21
2023-01-19T06:25:17.089Z,2.24
2023-01-19T06:27:45.559Z,2.26
2023-01-19T06:30:14.715Z,2.28
2023-01-19T06:32:42.913Z,2.30
2023-01-19T06:35:11.502Z,2.32
2023-01-19T06:37:39.911Z,2.33
2023-01-19T06:40:13.542Z,2.34
2023-01-19T06:42:42.466Z,2.36
2023-01-19T06:45:11.499Z,2.37
2023-01-19T06:47:39.763Z,2.39
2023-01-19T06:50:10.212Z,2.42
2023-01-19T06:52:41.566Z,2.43
2023-01-19T06:55:10.464Z,2.42
2023-01-19T06:57:39.534Z,2.42
2023-01-19T07:00:11.036Z,2.41
2023-01-19T07:02:42.246Z,2.42
2023-01-19T07:05:13.576Z,2.45
2023-01-19T07:07:44.035Z,2.49
2023-01-19T07:10:14.834Z,2.48
2023-01-19T07:12:45.768Z,2.46
2023-01-19T07:15:15.114Z,2.45
2023-01-19T07:17:43.424Z,2.46
2023-01-19T07:20:13.702Z,2.48
2023-01-19T07:22:43.162Z,2.49
2023-01-19T07:25:11.507Z,2.48
2023-01-19T07:27:40.056Z,2.47
2023-01-19T07:30:10.458Z,2.47
2023-01-19T07:32:38.746Z,2.46
2023-01-19T07:35:07.928Z,2.45
2023-01-19T07:37:36.215Z,2.43
2023-01-19T07:40:06.074Z,2.42
2023-01-19T07:42:34.313Z,2.43
2023-01-19T07:45:03.535Z,2.41
2023-01-19T07:47:31.792Z,2.40
2023-01-19T07:50:00.144Z,2.38
2023-01-19T07:52:28.366Z,2.36
2023-01-19T07:54:57.655Z,2.35
2023-01-19T07:57:25.855Z,2.35
2023-01-19T07:59:54.065Z,2.35
2023-01-19T08:02:22.364Z,2.35
2023-01-19T08:04:51.213Z,2.35
2023-01-19T08:07:19.454Z,2.34
2023-01-19T08:09:47.749Z,2.32
2023-01-19T08:12:16.478Z,2.30
2023-01-19T08:14:44.718Z,2.31
2023-01-19T08:17:13.425Z,2.32
2023-01-19T08:19:42.599Z,2.34
2023-01-19T08:22:10.761Z,2.36
2023-01-19T08:24:39.018Z,2.39
2023-01-19T08:27:09.113Z,2.42
2023-01-19T08:29:37.463Z,2.45
2023-01-19T08:32:06.382Z,2.49
2023-01-19T08:34:34.817Z,2.51
2023-01-19T08:37:03.048Z,2.54
2023-01-19T08:39:31.238Z,2.56
2023-01-19T08:42:00.000Z,2.52
2023-01-19T08:44:28.369Z,2.51
2023-01-19T08:46:56.546Z,2.50
2023-01-19T08:49:24.780Z,2.51
2023-01-19T08:51:53.019Z,2.54
2023-01-19T08:54:22.486Z,2.56
2023-01-19T08:56:50.684Z,2.60
2023-01-19T08:59:18.830Z,2.63
2023-01-19T09:01:47.145Z,2.78
2023-01-19T09:04:15.487Z,4.05
2023-01-19T09:06:43.861Z,5.59
2023-01-19T09:09:12.037Z,6.15
2023-01-19T09:11:40.266Z,5.69
2023-01-19T09:14:08.487Z,5.14
2023-01-19T09:16:36.759Z,4.76
2023-01-19T09:19:07.881Z,4.59
2023-01-19T09:21:36.145Z,4.37
2023-01-19T09:24:05.341Z,4.20
2023-01-19T09:26:33.507Z,4.09
2023-01-19T09:29:02.236Z,3.97
2023-01-19T09:31:30.649Z,3.88
2023-01-19T09:33:59.063Z,3.78
2023-01-19T09:36:27.270Z,3.71
2023-01-19T09:38:55.522Z,3.61
2023-01-19T09:41:25.484Z,3.55
2023-01-19T09:43:57.568Z,3.54
2023-01-19T09:46:32.953Z,3.53
2023-01-19T09:49:05.869Z,3.48
2023-01-19T09:51:38.365Z,3.99
2023-01-19T09:54:13.399Z,5.48
2023-01-19T09:56:41.894Z,6.68
2023-01-19T09:59:20.464Z,7.12
2023-01-19T10:02:01.000Z,6.56
2023-01-19T10:04:33.813Z,5.90
2023-01-19T10:07:13.664Z,6.08
2023-01-19T10:09:54.037Z,7.21
2023-01-19T10:12:38.744Z,8.02
2023-01-19T10:15:17.728Z,8.33
2023-01-19T10:17:55.860Z,8.33
2023-01-19T10:20:29.172Z,7.79
2023-01-19T10:22:59.931Z,7.01
2023-01-19T10:25:28.961Z,6.69
2023-01-19T10:28:00.268Z,6.42
2023-01-19T10:30:30.023Z,6.12
2023-01-19T10:32:58.317Z,5.88
2023-01-19T10:35:26.883Z,5.52
2023-01-19T10:37:58.613Z,5.29
2023-01-19T10:40:32.831Z,5.14
2023-01-19T10:43:01.472Z,5.17
2023-01-19T10:45:31.175Z,5.34
2023-01-19T10:48:05.804Z,5.11
2023-01-19T10:50:36.379Z,4.81
2023-01-19T10:53:06.208Z,4.57
2023-01-19T10:55:37.227Z,4.42
2023-01-19T10:58:06.440Z,4.29
2023-01-19T11:00:37.283Z,4.23
2023-01-19T11:03:22.008Z,4.06
2023-01-19T11:05:50.772Z,3.80
2023-01-19T11:08:28.382Z,3.58
2023-01-19T11:11:03.608Z,3.42
2023-01-19T11:13:32.242Z,3.32
2023-01-19T11:16:06.173Z,3.25
2023-01-19T11:18:37.176Z,3.19
2023-01-19T11:21:08.698Z,3.14
2023-01-19T11:23:42.357Z,3.09
2023-01-19T11:26:15.612Z,3.06
2023-01-19T11:28:50.647Z,3.02
2023-01-19T11:31:30.774Z,2.98
2023-01-19T11:34:01.112Z,2.94
2023-01-19T11:36:30.999Z,2.91
2023-01-19T11:39:01.831Z,2.89
2023-01-19T11:41:34.594Z,2.90
2023-01-19T11:44:15.013Z,2.90
2023-01-19T11:46:47.476Z,2.93
2023-01-19T11:49:24.108Z,2.95
2023-01-19T11:51:59.431Z,2.96
2023-01-19T11:54:31.867Z,2.98
2023-01-19T11:57:01.260Z,2.99
2023-01-19T11:59:29.544Z,3.01
2023-01-19T12:02:01.266Z,3.03
2023-01-19T12:04:30.168Z,3.04
2023-01-19T12:07:02.446Z,3.03
2023-01-19T12:09:35.780Z,3.01
2023-01-19T12:12:06.902Z,3.02
2023-01-19T12:14:40.971Z,3.03
2023-01-19T12:17:19.091Z,3.00
2023-01-19T12:19:55.229Z,3.00
2023-01-19T12:22:27.779Z,2.96
2023-01-19T12:25:05.534Z,2.93
2023-01-19T12:27:39.957Z,2.90
2023-01-19T12:30:18.311Z,2.88
2023-01-19T12:32:46.609Z,2.85
2023-01-19T12:35:46.863Z,2.84
2023-01-19T12:38:35.658Z,2.83
2023-01-19T12:41:18.266Z,2.77
2023-01-19T12:43:47.131Z,2.76
2023-01-19T12:46:24.156Z,2.75
2023-01-19T12:48:52.938Z,2.75
2023-01-19T12:51:25.273Z,2.74
2023-01-19T12:53:54.653Z,2.77
2023-01-19T12:56:30.825Z,2.79
2023-01-19T12:58:59.910Z,2.77
2023-01-19T13:01:28.301Z,2.75
2023-01-19T13:04:03.636Z,2.75
2023-01-19T13:07:09.527Z,2.77
2023-01-19T13:09:38.727Z,2.81
2023-01-19T13:12:21.931Z,2.81
2023-01-19T13:14:50.367Z,2.83
2023-01-19T13:17:26.089Z,2.85
2023-01-19T13:20:26.490Z,2.83
2023-01-19T13:23:23.058Z,2.79
2023-01-19T13:26:14.128Z,2.75
2023-01-19T13:28:44.524Z,2.72
2023-01-19T13:31:13.837Z,2.73
2023-01-19T13:33:49.179Z,2.73
2023-01-19T13:36:26.152Z,2.73
2023-01-19T13:38:56.405Z,2.71
2023-01-19T13:41:27.205Z,2.69
2023-01-19T13:44:01.031Z,2.70
2023-01-19T13:46:30.653Z,2.72
2023-01-19T13:49:03.970Z,2.74
2023-01-19T13:51:32.338Z,2.78
2023-01-19T13:54:01.298Z,2.82
2023-01-19T13:56:30.056Z,2.82
2023-01-19T13:59:12.421Z,2.81
2023-01-19T14:01:42.860Z,2.84
2023-01-19T14:04:29.197Z,2.84
2023-01-19T14:07:00.518Z,2.82
2023-01-19T14:09:28.753Z,2.80
2023-01-19T14:12:13.234Z,2.79
2023-01-19T14:14:42.308Z,2.78
2023-01-19T14:17:24.232Z,2.76
2023-01-19T14:19:54.307Z,2.74
2023-01-19T14:22:38.319Z,2.73
2023-01-19T14:25:28.672Z,2.73
2023-01-19T14:28:34.910Z,2.71
2023-01-19T14:31:17.085Z,2.71
2023-01-19T14:33:46.756Z,2.71
2023-01-19T14:36:29.438Z,2.72
2023-01-19T14:38:59.736Z,2.68
2023-01-19T14:41:35.666Z,2.65
2023-01-19T14:44:08.862Z,2.62
2023-01-19T14:46:37.611Z,2.60
2023-01-19T14:49:06.911Z,2.54
2023-01-19T14:51:35.213Z,2.50
2023-01-19T14:54:04.192Z,2.47
2023-01-19T14:56:34.510Z,2.46
2023-01-19T14:59:09.396Z,2.45
2023-01-19T15:01:37.747Z,2.42
2023-01-19T15:04:06.055Z,2.38
2023-01-19T15:06:39.567Z,2.35
2023-01-19T15:09:11.421Z,2.33
2023-01-19T15:11:40.583Z,2.32
2023-01-19T15:14:13.167Z,2.31
2023-01-19T15:16:41.762Z,2.33
2023-01-19T15:19:12.297Z,2.33
2023-01-19T15:21:41.593Z,2.32
2023-01-19T15:24:11.481Z,2.29
2023-01-19T15:26:41.928Z,2.26
2023-01-19T15:29:23.030Z,2.27
2023-01-19T15:31:52.239Z,2.29
2023-01-19T15:34:20.537Z,2.29
2023-01-19T15:36:49.809Z,2.30
2023-01-19T15:39:18.220Z,2.30
2023-01-19T15:41:46.485Z,2.31
2023-01-19T15:44:14.758Z,2.33
2023-01-19T15:46:42.981Z,2.32
2023-01-19T15:49:11.201Z,2.33
2023-01-19T15:51:39.367Z,2.35
2023-01-19T15:54:12.890Z,2.37
2023-01-19T15:56:41.653Z,2.37
2023-01-19T15:59:09.835Z,2.40
2023-01-19T16:01:39.446Z,2.42
2023-01-19T16:04:10.346Z,2.44
2023-01-19T16:06:38.797Z,2.43
2023-01-19T16:09:07.000Z,2.41
2023-01-19T16:11:37.012Z,2.41
2023-01-19T16:14:05.191Z,2.44
2023-01-19T16:16:33.449Z,2.46
2023-01-19T16:19:01.733Z,2.49
2023-01-19T16:21:29.951Z,2.52
2023-01-19T16:23:58.133Z,2.55
2023-01-19T16:26:29.677Z,2.56
2023-01-19T16:29:00.090Z,2.57
2023-01-19T16:31:29.073Z,2.57
2023-01-19T16:33:57.316Z,2.59
2023-01-19T16:36:27.672Z,2.59
2023-01-19T16:38:58.909Z,2.59
2023-01-19T16:41:27.153Z,2.59
2023-01-19T16:43:57.501Z,2.60
2023-01-19T16:46:27.748Z,2.60
2023-01-19T16:49:00.126Z,2.61
2023-01-19T16:51:28.559Z,2.59
2023-01-19T16:53:57.059Z,2.60
2023-01-19T16:56:25.352Z,2.59
2023-01-19T16:58:54.290Z,2.60
2023-01-19T17:01:23.297Z,2.61
2023-01-19T17:03:51.778Z,2.64
2023-01-19T17:06:22.482Z,2.66
2023-01-19T17:08:51.655Z,2.68
2023-01-19T17:11:22.239Z,2.70
2023-01-19T17:13:53.837Z,2.72
2023-01-19T17:16:23.017Z,2.73
2023-01-19T17:18:52.149Z,2.75
2023-01-19T17:21:20.416Z,2.77
2023-01-19T17:23:51.689Z,2.77
2023-01-19T17:26:20.598Z,2.79
2023-01-19T17:28:48.804Z,2.78
2023-01-19T17:31:19.149Z,2.78
2023-01-19T17:33:49.627Z,2.78
2023-01-19T17:36:21.546Z,2.77
2023-01-19T17:38:49.907Z,2.76
2023-01-19T17:41:20.552Z,2.74
2023-01-19T17:43:49.951Z,2.73
2023-01-19T17:46:20.071Z,2.72
2023-01-19T17:48:51.989Z,2.72
2023-01-19T17:51:22.270Z,2.72
2023-01-19T17:53:51.861Z,2.73
2023-01-19T17:56:22.140Z,2.71
2023-01-19T17:58:50.321Z,2.71
2023-01-19T18:01:21.255Z,2.69
2023-01-19T18:03:50.478Z,2.68
2023-01-19T18:06:19.326Z,2.67
2023-01-19T18:08:48.810Z,2.66
2023-01-19T18:11:19.786Z,2.66
2023-01-19T18:13:49.791Z,2.65
2023-01-19T18:16:19.937Z,2.66
2023-01-19T18:18:49.523Z,2.69
2023-01-19T18:21:19.490Z,2.73
2023-01-19T18:23:48.375Z,2.76
2023-01-19T18:26:19.082Z,2.79
2023-01-19T18:28:48.360Z,2.82
2023-01-19T18:31:18.528Z,2.86
2023-01-19T18:33:47.897Z,2.86
2023-01-19T18:36:16.710Z,2.82
2023-01-19T18:38:45.360Z,2.81
2023-01-19T18:41:15.856Z,2.81
2023-01-19T18:43:45.870Z,2.83
2023-01-19T18:46:14.947Z,2.83
2023-01-19T18:48:43.784Z,2.82
2023-01-19T18:51:14.482Z,2.80
2023-01-19T18:53:43.335Z,2.78
2023-01-19T18:56:13.111Z,2.78
2023-01-19T18:58:41.980Z,2.78
2023-01-19T19:01:20.431Z,2.78
2023-01-19T19:03:48.732Z,2.76
2023-01-19T19:06:19.982Z,2.74
2023-01-19T19:08:49.755Z,2.72
2023-01-19T19:11:18.846Z,2.72
2023-01-19T19:13:51.053Z,2.70
2023-01-19T19:16:19.366Z,2.69
2023-01-19T19:18:49.132Z,2.65
2023-01-19T19:21:18.927Z,2.61
2023-01-19T19:23:50.992Z,2.56
2023-01-19T19:26:19.814Z,2.53
2023-01-19T19:28:48.473Z,2.51
2023-01-19T19:31:19.679Z,2.52
2023-01-19T19:33:51.193Z,2.54
2023-01-19T19:36:23.071Z,2.57
2023-01-19T19:38:51.734Z,2.60
2023-01-19T19:41:21.949Z,2.62
2023-01-19T19:43:50.668Z,2.64
2023-01-19T19:46:20.231Z,2.67
2023-01-19T19:48:49.424Z,2.67
2023-01-19T19:51:21.735Z,2.68
2023-01-19T19:53:51.651Z,2.67
2023-01-19T19:56:24.079Z,2.68
2023-01-19T19:58:55.068Z,2.68
2023-01-19T20:01:30.021Z,2.67
2023-01-19T20:04:05.550Z,2.66
2023-01-19T20:06:37.890Z,2.66
2023-01-19T20:09:07.373Z,2.65
2023-01-19T20:11:36.423Z,2.66
2023-01-19T20:14:06.490Z,2.64
2023-01-19T20:16:35.595Z,2.62
2023-01-19T20:19:04.730Z,2.61
2023-01-19T20:21:35.285Z,2.59
2023-01-19T20:24:07.745Z,2.56
2023-01-19T20:26:39.361Z,2.56
2023-01-19T20:29:06.856Z,2.56
2023-01-19T20:31:37.562Z,2.54
2023-01-19T20:34:09.310Z,2.54
2023-01-19T20:36:37.979Z,2.55
2023-01-19T20:39:09.670Z,2.54
2023-01-19T20:41:42.532Z,2.54
2023-01-19T20:44:11.808Z,2.53
2023-01-19T20:46:40.463Z,2.55
2023-01-19T20:49:09.551Z,2.56
2023-01-19T20:51:42.373Z,2.57
2023-01-19T20:54:11.254Z,2.58
2023-01-19T20:56:40.738Z,2.58
2023-01-19T20:59:09.316Z,2.58
2023-01-19T21:01:38.572Z,2.59
2023-01-19T21:04:07.861Z,2.60
2023-01-19T21:06:36.607Z,2.63
2023-01-19T21:09:05.275Z,2.66
2023-01-19T21:11:33.934Z,2.66
2023-01-19T21:14:02.623Z,2.65
2023-01-19T21:16:33.558Z,2.68
2023-01-19T21:19:01.984Z,2.71
2023-01-19T21:21:31.732Z,2.72
2023-01-19T21:24:01.641Z,2.73
2023-01-19T21:26:30.876Z,2.72
2023-01-19T21:28:59.849Z,2.72
2023-01-19T21:31:28.952Z,2.72
2023-01-19T21:33:57.956Z,2.71
2023-01-19T21:36:26.186Z,2.69
2023-01-19T21:38:59.451Z,2.66
2023-01-19T21:41:29.379Z,2.64
2023-01-19T21:43:59.216Z,2.58
2023-01-19T21:46:28.427Z,2.52
2023-01-19T21:48:57.446Z,2.48
2023-01-19T21:51:25.947Z,2.46
2023-01-19T21:53:58.775Z,2.43
2023-01-19T21:56:28.223Z,2.39
2023-01-19T21:58:58.687Z,2.37
2023-01-19T22:01:27.328Z,2.37
2023-01-19T22:03:57.098Z,2.34
2023-01-19T22:06:26.269Z,2.33
2023-01-19T22:08:57.066Z,2.34
2023-01-19T22:11:25.440Z,2.34
2023-01-19T22:13:54.027Z,2.35
2023-01-19T22:16:22.913Z,2.37
2023-01-19T22:18:53.321Z,2.37
2023-01-19T22:21:23.913Z,2.39
2023-01-19T22:23:54.569Z,2.39
2023-01-19T22:26:23.007Z,2.41
2023-01-19T22:28:54.737Z,2.41
2023-01-19T22:31:23.659Z,2.42
2023-01-19T22:33:52.156Z,2.44
2023-01-19T22:36:22.261Z,2.45
2023-01-19T22:38:51.954Z,2.46
2023-01-19T22:41:22.604Z,2.47
2023-01-19T22:43:52.312Z,2.47
2023-01-19T22:46:22.585Z,2.44
2023-01-19T22:48:52.156Z,2.42
2023-01-19T22:51:21.981Z,2.44
2023-01-19T22:53:50.244Z,2.46
2023-01-19T22:56:20.543Z,2.47
2023-01-19T22:58:49.766Z,2.47
2023-01-19T23:01:20.563Z,2.48
2023-01-19T23:03:49.211Z,2.50
2023-01-19T23:06:21.288Z,2.52
2023-01-19T23:08:49.901Z,2.55
2023-01-19T23:11:20.526Z,2.56
2023-01-19T23:13:50.045Z,2.57
2023-01-19T23:16:19.001Z,2.59
2023-01-19T23:18:47.704Z,2.61
2023-01-19T23:21:18.100Z,2.63
2023-01-19T23:23:46.425Z,2.64
2023-01-19T23:26:16.778Z,2.65
2023-01-19T23:28:45.958Z,2.66
2023-01-19T23:31:16.901Z,2.67
2023-01-19T23:33:45.159Z,2.66
2023-01-19T23:36:14.291Z,2.66
2023-01-19T23:38:47.753Z,2.64
2023-01-19T23:41:16.127Z,2.63
2023-01-19T23:43:44.731Z,2.64
2023-01-19T23:46:13.772Z,2.64
2023-01-19T23:48:44.836Z,2.64
2023-01-19T23:51:15.477Z,2.63
2023-01-19T23:53:44.017Z,2.62
2023-01-19T23:56:14.172Z,2.63
2023-01-19T23:58:42.774Z,2.66
